Carnegie, OK (73015)

7:22 AM CDT on July 28, 2014 (GMT -0500)
Carnegie (KOKCARNE1) Elev 1358 ft | 35.14 °N, 98.60 °W | Change Station

Current weather conditions updated 5 seconds ago

Thunderstorm
Thunderstorm
69.3 °F
Feels Like 69.3 °F
N
2.7
Wind Variable Wind from ENE
Gusts 3.6 mph

Today is forecast to be Cooler than yesterday.

Today
High -- | Low -- °F
--% Chance of Precip.
Yesterday
High -- | Low -- °F
Precip. -- in
6:40 AM 8:40 PM
New Moon, 2% visible
Pressure 30.13 in
Visibility 10.0 miles
Clouds Mostly Cloudy 6000 ft
Overcast 7500 ft
Dew Point 69 °F
Humidity 100%
Rainfall -999.00 in
Snow Depth Not available.
UV 0 out of 12
Pollen 6.00 out of 12
Air Quality Not available.
Flu Activity Not available.
METAR KHBR 281153Z AUTO 07015KT 10SM TS BKN060 OVC075 22/16 A3019 RMK AO2 LTG DSNT ALQDS TSB36 SLP203 60000 T02170161 10267 20211 53011 $

More Conditions Fewer Conditions

Pressure 30.13 in
Visibility 10.0 miles
Clouds Mostly Cloudy 6000 ft
Overcast 7500 ft
Dew Point 69 °F
Humidity 100%
Rainfall -999.00 in
Snow Depth Not available.
UV 0 out of 12
Pollen 6.00 out of 12
Air Quality Not available.
Flu Activity Not available.
METAR KHBR 281153Z AUTO 07015KT 10SM TS BKN060 OVC075 22/16 A3019 RMK AO2 LTG DSNT ALQDS TSB36 SLP203 60000 T02170161 10267 20211 53011 $

More Conditions Fewer Conditions

10-Day Weather Forecast

Almanac

Astronomy

Jul. 28, 2014 Rise Set
Actual Time 6:40 AM CDT 8:40 PM CDT
Civil Twilight 6:12 AM CDT 9:08 PM CDT
Nautical Twilight 5:38 AM CDT 9:42 PM CDT
Astronomical Twilight 5:01 AM CDT 10:19 PM CDT
Moon 8:17 AM CDT 9:30 PM CDT
Length of Visible Light 14h 56m
Length of Day
14h 00m
Tomorrow will be 1m 33s shorter.
New Moon, 2% of the Moon is Illuminated
Today
New Moon
Aug 3
First Quarter
Aug 10
Full
Aug 17
Last Quarter
Aug 25
New

Today's Extremes

State Highs State Lows

Community

WunderPhotos

Upload Photos

1,738,311 photos uploaded!

Nearby

Snow Depth

Station Depth Elevation
No new snow has been reported.

Earthquake Activity

City Distance Mag. Time & Date
Langston, Oklahoma 90 miles 3.2 9:03 AM CDT
2014-07-23
Langston, Oklahoma 91 miles 3.3 9:02 PM CDT
2014-07-22
Guthrie, Oklahoma 82 miles 2.5 7:25 PM CDT
2014-07-22
Helena, Oklahoma 109 miles 2.6 12:50 PM CDT
2014-07-22
Minimum magnitude displayed is 2.5.

Coastal Water Temperatures

Place Temperature
No Stations Reporting

Nearby Weather Stations

Station Location Temp. Dew Point Humidity Wind Precip. Elev Updated Type
Carnegie, Carnegie, OK 69.3 °F 69 °F 100% ENE  at  2.7 mph 0.00 in / hr 1358 ft 7:22 AM CDT Rapid Fire
Peck's country, Anadarko, OK 69.7 °F 68 °F 95% North  at  0.0 mph 0.05 in / hr 1255 ft 7:20 AM CDT Normal

Show More Stations Show Fewer Stations